Time;durP1;ratioP1;P1;durP2;ratioP2;P2;SDS_P1;SDS_P2;PMS_P1;PMS_P2;Temp;Humidity;BMP_temperature;BMP_pressure;BME280_temperature;BME280_humidity;BME280_pressure;Samples;Min_cycle;Max_cycle;Signal;HPM_P1;HPM_P2
2022/08/19 00:00:42;;;;;;;8.35;4.40;;;;;;;;;;7332861;19;153896;-14
2022/08/19 00:03:14;;;;;;;8.90;3.83;;;;;;;;;;7330494;19;161845;-14
2022/08/19 00:05:45;;;;;;;9.27;4.75;;;;;;;;;;7332617;19;162632;-14
2022/08/19 00:08:17;;;;;;;5.93;3.97;;;;;;;;;;7334981;19;154075;-14
2022/08/19 00:10:48;;;;;;;5.10;4.30;;;;;;;;;;7332551;19;153714;-13
2022/08/19 00:13:30;;;;;;;7.35;4.07;;;;;;;;;;7332391;19;162064;-14
2022/08/19 00:16:06;;;;;;;7.57;4.25;;;;;;;;;;7332119;19;162551;-14
2022/08/19 00:18:37;;;;;;;7.13;3.88;;;;;;;;;;7332192;19;154346;-17
2022/08/19 00:21:09;;;;;;;7.03;4.10;;;;;;;;;;7332642;19;153978;-13
2022/08/19 00:23:40;;;;;;;7.30;4.30;;;;;;;;;;7329695;19;161819;-13
2022/08/19 00:26:12;;;;;;;10.27;4.88;;;;;;;;;;7330924;19;163172;-14
2022/08/19 00:28:43;;;;;;;4.90;3.80;;;;;;;;;;7334556;19;154277;-13
2022/08/19 00:31:17;;;;;;;10.15;4.28;;;;;;;;;;7335864;19;153570;-13
2022/08/19 00:33:50;;;;;;;6.25;4.28;;;;;;;;;;7331744;19;161906;-14
2022/08/19 00:36:20;;;;;;;;;;;;;;;;;;7332150;19;162759;-14
2022/08/19 00:38:53;;;;;;;9.02;4.68;;;;;;;;;;7332202;19;154167;-14
2022/08/19 00:41:26;;;;;;;6.72;3.88;;;;;;;;;;7333069;19;153552;-14
2022/08/19 00:44:04;;;;;;;6.35;3.90;;;;;;;;;;7328981;19;161896;-14
2022/08/19 00:46:45;;;;;;;5.93;3.92;;;;;;;;;;7331495;19;162289;-14
2022/08/19 00:49:20;;;;;;;9.25;3.65;;;;;;;;;;7331471;19;154278;-14
2022/08/19 00:51:54;;;;;;;8.95;3.72;;;;;;;;;;7331414;19;153605;-13
2022/08/19 00:54:31;;;;;;;7.15;4.13;;;;;;;;;;7331182;19;162045;-14
2022/08/19 00:57:04;;;;;;;7.07;3.72;;;;;;;;;;7329348;19;162172;-14
2022/08/19 00:59:39;;;;;;;6.28;3.78;;;;;;;;;;7330191;19;154235;-13
2022/08/19 01:02:13;;;;;;;5.80;3.72;;;;;;;;;;7328683;19;153544;-14
2022/08/19 01:04:44;;;;;;;5.25;4.10;;;;;;;;;;7330922;19;162057;-14
2022/08/19 01:07:16;;;;;;;6.72;4.68;;;;;;;;;;7330916;19;162350;-13
2022/08/19 01:09:47;;;;;;;5.65;3.88;;;;;;;;;;7331278;19;154027;-14
2022/08/19 01:12:19;;;;;;;6.93;3.40;;;;;;;;;;7331023;19;153806;-13
2022/08/19 01:14:51;;;;;;;5.80;3.70;;;;;;;;;;7330792;19;162650;-14
2022/08/19 01:17:26;;;;;;;6.45;3.90;;;;;;;;;;7331173;19;162668;-14
2022/08/19 01:19:57;;;;;;;5.93;3.47;;;;;;;;;;7334313;19;154184;-14
2022/08/19 01:22:35;;;;;;;6.82;3.47;;;;;;;;;;7333874;19;153742;-14
2022/08/19 01:25:07;;;;;;;6.22;3.90;;;;;;;;;;7333248;19;161849;-14
2022/08/19 01:27:43;;;;;;;6.85;3.70;;;;;;;;;;7333218;19;162375;-14
2022/08/19 01:30:17;;;;;;;6.78;3.95;;;;;;;;;;7331668;19;154132;-14
2022/08/19 01:32:50;;;;;;;5.93;4.10;;;;;;;;;;7333975;19;153610;-14
2022/08/19 01:35:23;;;;;;;6.78;3.85;;;;;;;;;;7331917;19;162042;-14
2022/08/19 01:38:00;;;;;;;6.55;4.28;;;;;;;;;;7332919;19;162464;-14
2022/08/19 01:40:34;;;;;;;4.28;3.55;;;;;;;;;;7333193;19;154319;-14
2022/08/19 01:43:06;;;;;;;5.25;3.60;;;;;;;;;;7332324;19;153837;-15
2022/08/19 01:45:40;;;;;;;4.90;3.67;;;;;;;;;;7333064;19;161835;-14
2022/08/19 01:48:11;;;;;;;11.57;3.80;;;;;;;;;;7332200;19;162596;-14
2022/08/19 01:50:42;;;;;;;8.10;4.10;;;;;;;;;;7332761;19;154117;-14
2022/08/19 01:53:16;;;;;;;5.00;3.85;;;;;;;;;;7330853;19;153506;-14
2022/08/19 01:55:48;;;;;;;7.50;3.53;;;;;;;;;;7332637;19;162253;-14
2022/08/19 01:58:23;;;;;;;4.87;3.40;;;;;;;;;;7332556;19;162355;-14
2022/08/19 02:00:55;;;;;;;9.88;4.25;;;;;;;;;;7330111;19;154221;-13
2022/08/19 02:03:26;;;;;;;6.28;3.50;;;;;;;;;;7331486;19;153788;-14
2022/08/19 02:05:59;;;;;;;6.85;4.45;;;;;;;;;;7332189;19;161865;-14
2022/08/19 02:08:33;;;;;;;10.20;4.28;;;;;;;;;;7332131;19;162356;-14
2022/08/19 02:11:05;;;;;;;8.65;4.70;;;;;;;;;;7332891;19;154084;-14
2022/08/19 02:13:37;;;;;;;10.60;4.88;;;;;;;;;;7331627;19;153717;-14
2022/08/19 02:16:08;;;;;;;6.68;4.60;;;;;;;;;;7331813;19;162543;-14
2022/08/19 02:18:40;;;;;;;8.63;4.72;;;;;;;;;;7331866;19;162648;-14
2022/08/19 02:21:11;;;;;;;9.32;4.50;;;;;;;;;;7331615;19;154040;-14
2022/08/19 02:23:45;;;;;;;10.73;5.22;;;;;;;;;;7331179;19;153508;-14
2022/08/19 02:26:17;;;;;;;10.68;5.25;;;;;;;;;;7331703;19;161729;-14
2022/08/19 02:28:48;;;;;;;9.07;5.00;;;;;;;;;;7331638;19;162514;-13
2022/08/19 02:31:22;;;;;;;8.63;4.68;;;;;;;;;;7331469;19;154076;-14
2022/08/19 02:33:55;;;;;;;8.65;4.68;;;;;;;;;;7331126;19;154086;-14
2022/08/19 02:36:30;;;;;;;8.30;5.32;;;;;;;;;;7331248;19;162154;-13
2022/08/19 02:39:01;;;;;;;9.57;4.90;;;;;;;;;;7331700;19;162485;-13
2022/08/19 02:41:35;;;;;;;9.38;4.75;;;;;;;;;;7332070;19;154251;-14
2022/08/19 02:44:07;;;;;;;8.23;4.95;;;;;;;;;;7330180;19;153802;-14
2022/08/19 02:46:40;;;;;;;9.20;5.07;;;;;;;;;;7331259;19;161967;-14
2022/08/19 02:49:11;;;;;;;8.73;4.70;;;;;;;;;;7331210;19;162399;-14
2022/08/19 02:51:46;;;;;;;6.88;4.32;;;;;;;;;;7326982;19;154125;-14
2022/08/19 02:54:20;;;;;;;8.15;4.60;;;;;;;;;;7327745;19;153582;-13
2022/08/19 02:56:51;;;;;;;7.13;4.38;;;;;;;;;;7327365;19;161858;-14
2022/08/19 02:59:26;;;;;;;7.65;5.07;;;;;;;;;;7325676;19;162368;-13
2022/08/19 03:02:00;;;;;;;7.00;4.38;;;;;;;;;;7330883;19;154203;-13
2022/08/19 03:04:32;;;;;;;8.55;4.75;;;;;;;;;;7329167;19;153555;-14
2022/08/19 03:07:03;;;;;;;9.43;4.97;;;;;;;;;;7326851;19;161871;-14
2022/08/19 03:09:39;;;;;;;11.27;5.35;;;;;;;;;;7326784;19;162550;-14
2022/08/19 03:12:11;;;;;;;7.35;4.78;;;;;;;;;;7328522;19;154133;-14
2022/08/19 03:14:42;;;;;;;9.45;5.25;;;;;;;;;;7330538;19;153793;-14
2022/08/19 03:17:14;;;;;;;14.32;5.40;;;;;;;;;;7326901;19;161851;-14
2022/08/19 03:19:45;;;;;;;9.57;4.80;;;;;;;;;;7330535;19;162515;-14
2022/08/19 03:22:16;;;;;;;9.45;4.60;;;;;;;;;;7332632;19;154204;-14
2022/08/19 03:24:50;;;;;;;7.45;4.45;;;;;;;;;;7330462;19;153622;-14
2022/08/19 03:27:22;;;;;;;7.28;4.47;;;;;;;;;;7333842;19;161864;-14
2022/08/19 03:29:53;;;;;;;6.90;4.72;;;;;;;;;;7333501;19;162456;-14
2022/08/19 03:32:24;;;;;;;8.35;5.07;;;;;;;;;;7332795;19;154084;-13
2022/08/19 03:34:55;;;;;;;6.95;4.47;;;;;;;;;;7333880;19;153649;-14
2022/08/19 03:37:28;;;;;;;8.70;5.03;;;;;;;;;;7332259;19;161949;-13
2022/08/19 03:40:02;;;;;;;7.68;5.00;;;;;;;;;;7333206;19;162327;-13
2022/08/19 03:42:33;;;;;;;6.05;4.55;;;;;;;;;;7332398;19;154039;-13
2022/08/19 03:45:07;;;;;;;7.45;4.80;;;;;;;;;;7332356;19;153708;-13
2022/08/19 03:47:38;;;;;;;8.40;4.30;;;;;;;;;;7333352;19;161812;-13
2022/08/19 03:50:10;;;;;;;9.00;4.88;;;;;;;;;;7331995;19;162648;-13
2022/08/19 03:52:42;;;;;;;6.82;4.55;;;;;;;;;;7332270;19;154013;-13
2022/08/19 03:55:16;;;;;;;10.40;4.65;;;;;;;;;;7333275;19;153915;-13
2022/08/19 03:57:48;;;;;;;7.20;5.20;;;;;;;;;;7332943;19;162183;-13
2022/08/19 04:00:19;;;;;;;;;;;;;;;;;;7335831;19;162427;-13
2022/08/19 04:02:51;;;;;;;6.82;4.60;;;;;;;;;;7333142;19;154153;-13
2022/08/19 04:05:23;;;;;;;9.18;4.95;;;;;;;;;;7331362;19;153643;-13
2022/08/19 04:07:58;;;;;;;12.98;5.00;;;;;;;;;;7332513;19;162167;-13
2022/08/19 04:10:33;;;;;;;6.60;4.53;;;;;;;;;;7332457;19;162595;-13
2022/08/19 04:13:06;;;;;;;7.43;5.10;;;;;;;;;;7332847;19;153947;-13
2022/08/19 04:15:42;;;;;;;6.47;4.93;;;;;;;;;;7332660;19;153551;-13
2022/08/19 04:18:16;;;;;;;6.90;5.20;;;;;;;;;;7332204;19;161785;-13
2022/08/19 04:20:49;;;;;;;6.97;4.63;;;;;;;;;;7332230;19;162653;-13
2022/08/19 04:23:20;;;;;;;8.07;5.00;;;;;;;;;;7332536;19;154639;-13
2022/08/19 04:25:54;;;;;;;6.57;4.72;;;;;;;;;;7330518;19;153696;-13
2022/08/19 04:28:26;;;;;;;7.80;4.57;;;;;;;;;;7332026;19;161892;-13
2022/08/19 04:30:58;;;;;;;7.87;4.93;;;;;;;;;;7329464;19;162576;-13
2022/08/19 04:33:29;;;;;;;11.80;5.43;;;;;;;;;;7332765;19;154381;-13
2022/08/19 04:36:00;;;;;;;11.30;4.68;;;;;;;;;;7332067;19;153556;-13
2022/08/19 04:38:34;;;;;;;7.43;4.55;;;;;;;;;;7331637;19;161997;-13
2022/08/19 04:43:51;;;;;;;7.07;4.80;;;;;;;;;;7332017;19;154289;-13
2022/08/19 04:46:22;;;;;;;7.75;4.22;;;;;;;;;;7329900;19;153773;-13
2022/08/19 04:48:56;;;;;;;8.77;5.10;;;;;;;;;;7331432;19;162266;-13
2022/08/19 04:51:30;;;;;;;7.35;4.82;;;;;;;;;;7331304;19;162423;-13
2022/08/19 04:54:03;;;;;;;10.38;4.95;;;;;;;;;;7328976;19;154184;-13
2022/08/19 04:56:37;;;;;;;7.88;4.53;;;;;;;;;;7331586;19;153710;-13
2022/08/19 04:59:08;;;;;;;6.65;4.38;;;;;;;;;;7331075;19;162219;-13
2022/08/19 05:01:39;;;;;;;6.85;4.60;;;;;;;;;;7329763;19;162740;-13
2022/08/19 05:04:11;;;;;;;7.43;4.20;;;;;;;;;;7331456;19;154031;-13
2022/08/19 05:06:44;;;;;;;7.35;4.40;;;;;;;;;;7329097;19;153272;-13
2022/08/19 05:09:16;;;;;;;6.40;4.53;;;;;;;;;;7329695;19;161869;-13
2022/08/19 05:11:52;;;;;;;6.68;4.45;;;;;;;;;;7330534;19;162539;-13
2022/08/19 05:14:23;;;;;;;5.25;4.20;;;;;;;;;;7331023;19;154120;-13
2022/08/19 05:16:54;;;;;;;6.55;4.20;;;;;;;;;;7329594;19;153577;-13
2022/08/19 05:22:37;;;;;;;8.55;4.50;;;;;;;;;;7327766;19;162702;-13
2022/08/19 05:25:18;;;;;;;10.05;5.60;;;;;;;;;;7330405;19;154305;-13
2022/08/19 05:27:52;;;;;;;12.88;6.72;;;;;;;;;;7330726;19;153856;-13
2022/08/19 05:30:23;;;;;;;14.05;6.90;;;;;;;;;;7330369;19;162513;-13
2022/08/19 05:32:57;;;;;;;13.10;6.72;;;;;;;;;;7330190;19;162370;-13
2022/08/19 05:35:28;;;;;;;12.52;7.30;;;;;;;;;;7329374;19;154117;-13
2022/08/19 05:37:59;;;;;;;13.57;6.35;;;;;;;;;;7330483;19;153824;-13
2022/08/19 05:40:31;;;;;;;12.00;6.80;;;;;;;;;;7330084;19;161763;-13
2022/08/19 05:43:07;;;;;;;13.80;6.50;;;;;;;;;;7328945;19;162403;-13
2022/08/19 05:45:42;;;;;;;11.93;7.22;;;;;;;;;;7329864;19;154042;-13
2022/08/19 05:48:14;;;;;;;12.52;7.00;;;;;;;;;;7330111;19;153801;-13
2022/08/19 05:50:50;;;;;;;12.05;7.70;;;;;;;;;;7329628;19;161903;-13
2022/08/19 05:53:21;;;;;;;13.50;6.63;;;;;;;;;;7327399;19;162659;-13
2022/08/19 05:55:52;;;;;;;16.25;6.97;;;;;;;;;;7329515;19;153990;-13
2022/08/19 05:58:26;;;;;;;12.75;7.13;;;;;;;;;;7329865;19;153564;-13
2022/08/19 06:00:57;;;;;;;14.60;7.22;;;;;;;;;;7328219;19;161834;-13
2022/08/19 06:03:29;;;;;;;12.15;6.30;;;;;;;;;;7328017;19;162458;-13
2022/08/19 06:06:02;;;;;;;14.70;7.22;;;;;;;;;;7333080;19;154146;-13
2022/08/19 06:08:34;;;;;;;16.00;7.50;;;;;;;;;;7328266;19;153754;-13
2022/08/19 06:11:17;;;;;;;20.00;8.02;;;;;;;;;;7328990;19;161570;-13
2022/08/19 06:13:52;;;;;;;;;;;;;;;;;;7329710;19;162321;-13
2022/08/19 06:16:24;;;;;;;10.88;6.90;;;;;;;;;;7329447;19;154499;-13
2022/08/19 06:18:56;;;;;;;13.07;7.15;;;;;;;;;;7327650;19;153385;-13
2022/08/19 06:21:30;;;;;;;15.23;7.03;;;;;;;;;;7328559;19;162092;-13
2022/08/19 06:24:02;;;;;;;15.73;6.20;;;;;;;;;;7327539;19;162415;-13
2022/08/19 06:26:34;;;;;;;11.93;7.00;;;;;;;;;;7326912;19;154051;-13
2022/08/19 06:29:09;;;;;;;14.13;7.90;;;;;;;;;;7327729;19;153695;-13
2022/08/19 06:31:43;;;;;;;15.95;8.43;;;;;;;;;;7328307;19;162244;-13
2022/08/19 06:34:15;;;;;;;11.23;6.47;;;;;;;;;;7328360;19;163101;-14
2022/08/19 06:36:50;;;;;;;11.00;6.68;;;;;;;;;;7328790;19;154017;-13
2022/08/19 06:39:28;;;;;;;8.68;5.55;;;;;;;;;;7330801;19;153650;-13
2022/08/19 06:42:01;;;;;;;10.05;6.72;;;;;;;;;;7328055;19;161962;-13
2022/08/19 06:44:40;;;;;;;11.95;6.07;;;;;;;;;;7327856;19;162935;-13
2022/08/19 06:47:14;;;;;;;13.38;5.88;;;;;;;;;;7326906;19;154084;-13
2022/08/19 06:49:45;;;;;;;11.82;6.85;;;;;;;;;;7328048;19;153363;-13
2022/08/19 06:52:17;;;;;;;9.75;6.38;;;;;;;;;;7325686;19;161881;-13
2022/08/19 06:54:50;;;;;;;13.68;6.97;;;;;;;;;;7328857;19;162724;-13
2022/08/19 06:57:22;;;;;;;10.80;6.40;;;;;;;;;;7335196;19;154052;-13
2022/08/19 06:59:56;;;;;;;11.20;6.18;;;;;;;;;;7333859;19;153669;-13
2022/08/19 07:02:30;;;;;;;12.60;6.75;;;;;;;;;;7333157;19;161899;-13
2022/08/19 07:05:04;;;;;;;10.48;6.03;;;;;;;;;;7333098;19;162663;-13
2022/08/19 07:07:35;;;;;;;9.70;5.75;;;;;;;;;;7333754;19;154027;-13
2022/08/19 07:10:08;;;;;;;9.75;5.70;;;;;;;;;;7334667;19;153774;-13
2022/08/19 07:12:40;;;;;;;;;;;;;;;;;;7334720;19;161942;-13
2022/08/19 07:15:15;;;;;;;12.68;6.57;;;;;;;;;;7332963;19;162756;-13
2022/08/19 07:17:47;;;;;;;9.57;5.65;;;;;;;;;;7334306;19;154400;-13
2022/08/19 07:20:23;;;;;;;9.88;5.82;;;;;;;;;;7334393;19;153761;-13
2022/08/19 07:22:54;;;;;;;11.15;6.10;;;;;;;;;;7333630;19;161786;-13
2022/08/19 07:25:30;;;;;;;11.13;6.47;;;;;;;;;;7333680;19;162352;-13
2022/08/19 07:28:02;;;;;;;8.88;6.15;;;;;;;;;;7332279;19;154323;-13
2022/08/19 07:30:44;;;;;;;13.80;6.40;;;;;;;;;;7333912;19;153594;-13
2022/08/19 07:33:16;;;;;;;11.63;6.00;;;;;;;;;;7333806;19;161893;-13
2022/08/19 07:35:47;;;;;;;10.68;5.90;;;;;;;;;;7333354;19;162329;-12
2022/08/19 07:38:19;;;;;;;9.23;5.30;;;;;;;;;;7333912;19;153791;-13
2022/08/19 07:40:51;;;;;;;10.75;5.85;;;;;;;;;;7333874;19;154804;-13
2022/08/19 07:43:26;;;;;;;11.10;5.90;;;;;;;;;;7333358;19;162001;-14
2022/08/19 07:46:00;;;;;;;9.60;6.18;;;;;;;;;;7333085;19;162360;-14
2022/08/19 07:48:36;;;;;;;16.45;6.20;;;;;;;;;;7331786;19;154121;-13
2022/08/19 07:51:19;;;;;;;12.52;6.18;;;;;;;;;;7333515;19;153360;-13
2022/08/19 07:53:51;;;;;;;9.63;6.40;;;;;;;;;;7330818;19;162391;-14
2022/08/19 07:56:23;;;;;;;12.37;6.53;;;;;;;;;;7332839;19;162500;-15
2022/08/19 07:58:56;;;;;;;13.68;6.40;;;;;;;;;;7336395;19;154024;-15
2022/08/19 08:01:31;;;;;;;8.27;6.25;;;;;;;;;;7333017;19;153585;-13
2022/08/19 08:09:38;;;;;;;12.43;5.70;;;;;;;;;;7333362;19;154323;-14
2022/08/19 08:12:16;;;;;;;11.30;6.75;;;;;;;;;;7333321;19;153590;-13
2022/08/19 08:15:10;;;;;;;10.57;6.80;;;;;;;;;;7332896;19;162034;-14
2022/08/19 08:17:47;;;;;;;8.68;5.47;;;;;;;;;;7332795;19;162434;-14
2022/08/19 08:20:24;;;;;;;8.50;6.32;;;;;;;;;;7333215;19;154326;-14
2022/08/19 08:26:01;;;;;;;10.32;6.47;;;;;;;;;;7332309;19;162153;-14
2022/08/19 08:28:33;;;;;;;13.45;5.97;;;;;;;;;;7330767;19;162432;-14
2022/08/19 08:31:04;;;;;;;14.88;6.82;;;;;;;;;;7332645;19;154029;-13
2022/08/19 08:33:42;;;;;;;11.70;6.75;;;;;;;;;;7332536;19;153603;-13
2022/08/19 08:36:14;;;;;;;10.57;6.30;;;;;;;;;;7331933;19;161935;-14
2022/08/19 08:38:47;;;;;;;11.73;6.20;;;;;;;;;;7332066;19;162641;-14
2022/08/19 08:41:25;;;;;;;11.98;6.68;;;;;;;;;;7332430;19;154005;-14
2022/08/19 08:44:02;;;;;;;11.95;6.38;;;;;;;;;;7332219;19;153566;-14
2022/08/19 08:46:40;;;;;;;10.23;5.70;;;;;;;;;;7331484;19;162044;-14
2022/08/19 08:49:26;;;;;;;11.18;6.05;;;;;;;;;;7329367;19;162444;-14
2022/08/19 08:52:05;;;;;;;12.05;6.65;;;;;;;;;;7331197;19;154285;-14
2022/08/19 08:54:42;;;;;;;11.18;6.72;;;;;;;;;;7331496;19;153560;-14
2022/08/19 08:57:18;;;;;;;9.63;6.47;;;;;;;;;;7331080;19;161819;-14
2022/08/19 08:59:51;;;;;;;13.57;6.47;;;;;;;;;;7331200;19;163620;-14
2022/08/19 09:02:22;;;;;;;16.20;6.78;;;;;;;;;;7331377;19;154035;-14
2022/08/19 09:04:57;;;;;;;10.77;6.65;;;;;;;;;;7331174;19;153699;-13
2022/08/19 09:07:40;;;;;;;11.23;7.15;;;;;;;;;;7330939;19;161917;-13
2022/08/19 09:10:22;;;;;;;10.40;6.10;;;;;;;;;;7330930;19;162402;-13
2022/08/19 09:13:12;;;;;;;11.52;6.53;;;;;;;;;;7330965;19;154214;-13
2022/08/19 09:15:47;;;;;;;9.98;6.15;;;;;;;;;;7330820;19;153775;-12
2022/08/19 09:18:19;;;;;;;13.63;6.45;;;;;;;;;;7328890;19;161862;-12
2022/08/19 09:20:53;;;;;;;14.40;6.47;;;;;;;;;;7330511;19;162385;-12
2022/08/19 09:23:24;;;;;;;10.23;6.47;;;;;;;;;;7331043;19;154032;-12
2022/08/19 09:25:56;;;;;;;10.10;6.47;;;;;;;;;;7330560;19;153544;-17
2022/08/19 09:28:29;;;;;;;12.45;7.15;;;;;;;;;;7329423;19;162121;-12
2022/08/19 09:31:00;;;;;;;14.32;7.40;;;;;;;;;;7330258;19;162400;-13
2022/08/19 09:33:31;;;;;;;15.45;7.32;;;;;;;;;;7329527;19;154131;-13
2022/08/19 09:36:12;;;;;;;12.10;6.93;;;;;;;;;;7330537;19;153484;-13
2022/08/19 09:38:44;;;;;;;12.95;7.13;;;;;;;;;;7330082;19;162013;-13
2022/08/19 09:41:18;;;;;;;14.63;7.00;;;;;;;;;;7329612;19;162535;-13
2022/08/19 09:43:55;;;;;;;13.75;7.20;;;;;;;;;;7330078;19;154036;-13
2022/08/19 09:46:30;;;;;;;14.90;6.68;;;;;;;;;;7329968;19;153768;-13
2022/08/19 09:49:05;;;;;;;11.20;6.63;;;;;;;;;;7328330;19;161841;-13
2022/08/19 09:51:39;;;;;;;15.48;7.47;;;;;;;;;;7329390;19;162381;-13
2022/08/19 09:54:13;;;;;;;14.63;6.35;;;;;;;;;;7329935;19;154184;-13
2022/08/19 09:56:44;;;;;;;12.43;7.18;;;;;;;;;;7329721;19;154021;-13
2022/08/19 09:59:15;;;;;;;10.80;6.63;;;;;;;;;;7331474;19;161963;-13
2022/08/19 10:01:46;;;;;;;12.02;5.97;;;;;;;;;;7329114;19;162396;-13
2022/08/19 10:04:18;;;;;;;10.88;7.03;;;;;;;;;;7329486;19;154302;-13
2022/08/19 10:06:53;;;;;;;13.88;6.30;;;;;;;;;;7329473;19;153500;-13
2022/08/19 10:09:25;;;;;;;16.88;7.55;;;;;;;;;;7326448;19;161900;-13
2022/08/19 10:11:56;;;;;;;13.85;5.95;;;;;;;;;;7329011;19;162302;-14
2022/08/19 10:14:28;;;;;;;13.07;7.18;;;;;;;;;;7329267;19;154189;-13
2022/08/19 10:17:00;;;;;;;12.75;6.47;;;;;;;;;;7329217;19;153886;-14
2022/08/19 10:19:35;;;;;;;12.67;6.37;;;;;;;;;;7328647;19;162098;-13
2022/08/19 10:22:14;;;;;;;10.32;6.15;;;;;;;;;;7328497;19;162347;-14
2022/08/19 10:24:45;;;;;;;9.27;5.75;;;;;;;;;;7327648;19;154123;-13
2022/08/19 10:27:16;;;;;;;12.52;6.90;;;;;;;;;;7328945;19;153552;-14
2022/08/19 10:29:47;;;;;;;11.38;6.10;;;;;;;;;;7329104;19;162035;-13
2022/08/19 10:32:18;;;;;;;13.95;6.53;;;;;;;;;;7335340;19;162552;-14
2022/08/19 10:34:51;;;;;;;13.35;6.40;;;;;;;;;;7335014;19;154044;-13
2022/08/19 10:37:26;;;;;;;12.13;6.32;;;;;;;;;;7337317;19;153789;-16
2022/08/19 10:39:57;;;;;;;13.40;6.07;;;;;;;;;;7333908;19;161787;-13
2022/08/19 10:42:30;;;;;;;13.73;6.75;;;;;;;;;;7334613;19;162341;-13
2022/08/19 10:45:02;;;;;;;10.07;5.65;;;;;;;;;;7334909;19;154187;-13
2022/08/19 10:47:33;;;;;;;10.93;6.00;;;;;;;;;;7335006;19;153596;-13
2022/08/19 10:52:52;;;;;;;11.20;5.38;;;;;;;;;;7333523;19;162626;-13
2022/08/19 10:58:14;;;;;;;8.43;4.85;;;;;;;;;;7337599;19;153637;-13
2022/08/19 11:00:46;;;;;;;9.60;5.15;;;;;;;;;;7334351;19;162065;-13
2022/08/19 11:03:18;;;;;;;13.80;5.67;;;;;;;;;;7334563;19;162581;-13
2022/08/19 11:05:59;;;;;;;8.13;5.53;;;;;;;;;;7334802;19;154002;-13
2022/08/19 11:08:34;;;;;;;11.52;6.03;;;;;;;;;;7333624;19;153493;-13
2022/08/19 11:11:06;;;;;;;9.82;5.13;;;;;;;;;;7331991;19;162444;-13
2022/08/19 11:13:41;;;;;;;12.73;5.60;;;;;;;;;;7334002;19;162672;-13
2022/08/19 11:16:15;;;;;;;12.60;5.68;;;;;;;;;;7336373;19;154101;-14
2022/08/19 11:18:48;;;;;;;11.63;5.80;;;;;;;;;;7334275;19;153722;-13
2022/08/19 11:21:20;;;;;;;;;;;;;;;;;;7332999;19;161992;-13
2022/08/19 11:23:56;;;;;;;9.52;5.75;;;;;;;;;;7333772;19;162629;-13
2022/08/19 11:26:28;;;;;;;8.05;5.15;;;;;;;;;;7333774;19;154092;-13
2022/08/19 11:29:00;;;;;;;11.47;5.87;;;;;;;;;;7333762;19;154390;-13
2022/08/19 11:31:33;;;;;;;9.13;5.87;;;;;;;;;;7331295;19;162078;-14
2022/08/19 11:34:07;;;;;;;9.15;5.43;;;;;;;;;;7332332;19;162148;-14
2022/08/19 11:36:40;;;;;;;10.15;5.68;;;;;;;;;;7333740;19;154092;-14
2022/08/19 11:39:16;;;;;;;10.52;5.70;;;;;;;;;;7333548;19;153622;-14
2022/08/19 11:41:47;;;;;;;15.90;4.82;;;;;;;;;;7331984;19;162627;-14
2022/08/19 11:44:18;;;;;;;8.52;5.53;;;;;;;;;;7333100;19;162317;-14
2022/08/19 11:46:50;;;;;;;10.02;5.03;;;;;;;;;;7333263;19;154039;-14
2022/08/19 11:49:22;;;;;;;7.18;4.85;;;;;;;;;;7333070;19;153640;-14
2022/08/19 11:51:54;;;;;;;7.85;4.75;;;;;;;;;;7332321;19;161816;-14
2022/08/19 11:54:27;;;;;;;10.07;5.03;;;;;;;;;;7332875;19;162585;-14
2022/08/19 11:56:59;;;;;;;8.38;4.82;;;;;;;;;;7333261;19;154036;-14
2022/08/19 11:59:30;;;;;;;11.20;5.07;;;;;;;;;;7332285;19;153616;-14
2022/08/19 12:02:01;;;;;;;10.90;4.95;;;;;;;;;;7332686;19;161732;-14
2022/08/19 12:04:33;;;;;;;9.40;5.15;;;;;;;;;;7332951;19;162360;-14
2022/08/19 12:07:07;;;;;;;7.10;4.78;;;;;;;;;;7333054;19;154278;-12
2022/08/19 12:09:41;;;;;;;9.98;4.97;;;;;;;;;;7332837;19;154021;-12
2022/08/19 12:12:13;;;;;;;8.75;4.68;;;;;;;;;;7332422;19;161810;-12
2022/08/19 12:14:45;;;;;;;13.82;5.28;;;;;;;;;;7331031;19;162643;-15
2022/08/19 12:17:16;;;;;;;7.00;4.43;;;;;;;;;;7332665;19;154160;-14
2022/08/19 12:19:47;;;;;;;7.78;5.13;;;;;;;;;;7331201;19;153630;-14
2022/08/19 12:22:18;;;;;;;7.55;5.00;;;;;;;;;;7336037;19;161942;-14
2022/08/19 12:24:53;;;;;;;7.40;4.65;;;;;;;;;;7332016;19;162376;-14
2022/08/19 12:27:24;;;;;;;10.60;5.32;;;;;;;;;;7331348;19;154056;-13
2022/08/19 12:29:55;;;;;;;7.53;4.88;;;;;;;;;;7332235;19;153532;-14
2022/08/19 12:32:27;;;;;;;11.95;4.90;;;;;;;;;;7333393;19;161938;-14
2022/08/19 12:34:58;;;;;;;6.28;4.68;;;;;;;;;;7331741;19;162332;-14
2022/08/19 12:37:31;;;;;;;10.18;5.03;;;;;;;;;;7332110;19;154005;-14
2022/08/19 12:40:05;;;;;;;;;;;;;;;;;;7332731;19;153493;-14
2022/08/19 12:42:37;;;;;;;7.90;5.07;;;;;;;;;;7332480;19;161875;-14
2022/08/19 12:45:10;;;;;;;9.43;4.40;;;;;;;;;;7331161;19;162341;-14
2022/08/19 12:47:43;;;;;;;8.35;4.93;;;;;;;;;;7332393;19;154118;-14
2022/08/19 12:50:14;;;;;;;7.97;4.88;;;;;;;;;;7331919;19;153813;-14
2022/08/19 12:52:45;;;;;;;6.25;4.18;;;;;;;;;;7327957;19;161961;-13
2022/08/19 12:55:19;;;;;;;8.45;4.72;;;;;;;;;;7331526;19;162386;-14
2022/08/19 12:57:51;;;;;;;6.53;4.30;;;;;;;;;;7332165;19;154161;-14
2022/08/19 13:00:24;;;;;;;6.28;3.97;;;;;;;;;;7331661;19;153246;-13
2022/08/19 13:02:55;;;;;;;10.45;4.93;;;;;;;;;;7334117;19;161863;-14
2022/08/19 13:05:29;;;;;;;5.57;4.65;;;;;;;;;;7331313;19;162444;-14
2022/08/19 13:08:02;;;;;;;10.93;5.18;;;;;;;;;;7331252;19;154038;-14
2022/08/19 13:10:38;;;;;;;6.63;4.13;;;;;;;;;;7330654;19;153749;-14
2022/08/19 13:13:11;;;;;;;10.55;4.50;;;;;;;;;;7329625;19;161840;-14
2022/08/19 13:15:44;;;;;;;14.75;5.28;;;;;;;;;;7330515;19;162355;-14
2022/08/19 13:18:16;;;;;;;7.07;4.05;;;;;;;;;;7332841;19;154023;-13
2022/08/19 13:20:47;;;;;;;7.75;4.97;;;;;;;;;;7330928;19;153611;-14
2022/08/19 13:23:21;;;;;;;8.10;5.47;;;;;;;;;;7330577;19;161882;-14
2022/08/19 13:26:02;;;;;;;9.82;5.05;;;;;;;;;;7329167;19;162607;-14
2022/08/19 13:33:10;;;;;;;9.32;5.53;;;;;;;;;;7333884;19;154052;-14
2022/08/19 13:34:11;;;;;;;9.70;5.20;;;;;;;;;;7329845;19;162187;-13
2022/08/19 13:36:42;;;;;;;11.27;5.45;;;;;;;;;;7332485;19;162439;-13
2022/08/19 13:39:14;;;;;;;10.82;4.88;;;;;;;;;;7329858;19;154045;-13
2022/08/19 13:41:50;;;;;;;10.90;5.07;;;;;;;;;;7330130;19;153647;-13
2022/08/19 13:44:22;;;;;;;6.90;4.88;;;;;;;;;;7329671;19;161542;-13
2022/08/19 13:46:53;;;;;;;7.47;5.07;;;;;;;;;;7329406;19;162608;-14
2022/08/19 13:49:24;;;;;;;9.15;4.30;;;;;;;;;;7330001;19;154024;-13
2022/08/19 13:51:56;;;;;;;9.90;4.55;;;;;;;;;;7328581;19;153525;-13
2022/08/19 13:54:27;;;;;;;10.80;5.75;;;;;;;;;;7329512;19;162007;-13
2022/08/19 13:57:01;;;;;;;9.63;5.25;;;;;;;;;;7329251;19;162363;-14
2022/08/19 13:59:32;;;;;;;8.95;4.25;;;;;;;;;;7332506;19;154416;-14
2022/08/19 14:02:05;;;;;;;10.45;4.88;;;;;;;;;;7330830;19;153676;-13
2022/08/19 14:04:37;;;;;;;12.85;6.00;;;;;;;;;;7328529;19;161850;-13
2022/08/19 14:07:09;;;;;;;8.97;4.83;;;;;;;;;;7329060;19;163059;-13
2022/08/19 14:09:40;;;;;;;8.47;4.93;;;;;;;;;;7329755;19;154179;-14
2022/08/19 14:12:14;;;;;;;9.70;4.82;;;;;;;;;;7331356;19;153462;-13
2022/08/19 14:14:45;;;;;;;8.57;4.97;;;;;;;;;;7328898;19;161995;-13
2022/08/19 14:17:17;;;;;;;5.93;4.32;;;;;;;;;;7328499;19;162405;-13
2022/08/19 14:19:48;;;;;;;10.27;5.28;;;;;;;;;;7329038;19;154106;-13
2022/08/19 14:22:19;;;;;;;11.70;5.35;;;;;;;;;;7329217;19;153637;-13
2022/08/19 14:24:50;;;;;;;8.93;5.32;;;;;;;;;;7328667;19;161781;-14
2022/08/19 14:27:25;;;;;;;13.93;5.03;;;;;;;;;;7328760;19;162567;-14
2022/08/19 14:29:56;;;;;;;10.07;4.55;;;;;;;;;;7327625;19;154127;-14
2022/08/19 14:32:28;;;;;;;8.52;5.43;;;;;;;;;;7326894;19;153414;-14
2022/08/19 14:34:59;;;;;;;14.37;5.40;;;;;;;;;;7330707;19;162197;-14
2022/08/19 14:37:30;;;;;;;9.82;4.60;;;;;;;;;;7327965;19;162571;-14
2022/08/19 14:40:02;;;;;;;9.65;5.00;;;;;;;;;;7328524;19;154044;-14
2022/08/19 14:42:36;;;;;;;8.82;5.03;;;;;;;;;;7328059;19;153606;-13
2022/08/19 14:45:09;;;;;;;11.65;4.55;;;;;;;;;;7328040;19;161900;-13
2022/08/19 14:47:40;;;;;;;;;;;;;;;;;;7328375;19;162510;-13
2022/08/19 14:50:13;;;;;;;6.10;4.65;;;;;;;;;;7328310;19;154551;-13
2022/08/19 14:52:47;;;;;;;11.18;5.22;;;;;;;;;;7326539;19;153673;-13
2022/08/19 14:55:19;;;;;;;15.80;4.93;;;;;;;;;;7327614;19;161757;-13
2022/08/19 14:57:53;;;;;;;13.43;5.20;;;;;;;;;;7327525;19;162450;-13
2022/08/19 15:00:25;;;;;;;8.38;4.53;;;;;;;;;;7327661;19;154073;-13
2022/08/19 15:02:56;;;;;;;10.32;4.97;;;;;;;;;;7327831;19;153589;-13
2022/08/19 15:05:28;;;;;;;12.05;4.75;;;;;;;;;;7327158;19;162044;-13
2022/08/19 15:07:59;;;;;;;17.08;4.68;;;;;;;;;;7326883;19;162504;-13
2022/08/19 15:10:30;;;;;;;5.80;4.60;;;;;;;;;;7327483;19;154151;-13
2022/08/19 15:13:04;;;;;;;9.57;4.72;;;;;;;;;;7326097;19;153542;-13
2022/08/19 15:15:36;;;;;;;7.82;4.65;;;;;;;;;;7327112;19;161696;-13
2022/08/19 15:18:10;;;;;;;10.55;4.80;;;;;;;;;;7333117;19;162354;-13
2022/08/19 15:20:43;;;;;;;10.85;4.85;;;;;;;;;;7333770;19;154104;-13
2022/08/19 15:23:14;;;;;;;7.20;3.72;;;;;;;;;;7333150;19;153655;-14